createdAt,value
2018-10-07T00:02:24.548Z,99.90
2018-10-07T00:04:53.253Z,99.90
2018-10-07T00:07:21.850Z,99.90
2018-10-07T00:09:50.639Z,99.90
2018-10-07T00:12:19.339Z,99.90
2018-10-07T00:14:48.024Z,99.90
2018-10-07T00:17:16.678Z,99.90
2018-10-07T00:19:45.193Z,99.90
2018-10-07T00:22:13.828Z,99.90
2018-10-07T00:24:42.645Z,99.90
2018-10-07T00:27:11.288Z,99.90
2018-10-07T00:29:39.797Z,99.90
2018-10-07T00:32:15.108Z,99.90
2018-10-07T00:34:44.931Z,99.90
2018-10-07T00:37:13.447Z,99.90
2018-10-07T00:39:42.415Z,99.90
2018-10-07T00:42:10.933Z,99.90
2018-10-07T00:44:39.689Z,99.90
2018-10-07T00:47:08.308Z,99.90
2018-10-07T00:49:37.311Z,99.90
2018-10-07T00:52:05.923Z,99.90
2018-10-07T00:54:34.602Z,99.90
2018-10-07T00:57:03.151Z,99.90
2018-10-07T00:59:31.775Z,99.90
2018-10-07T01:02:00.323Z,99.90
2018-10-07T01:04:28.853Z,99.90
2018-10-07T01:06:57.532Z,99.90
2018-10-07T01:09:26.099Z,99.90
2018-10-07T01:11:54.817Z,99.90
2018-10-07T01:14:23.459Z,99.90
2018-10-07T01:16:52.187Z,99.90
2018-10-07T01:19:20.873Z,99.90
2018-10-07T01:21:49.695Z,99.90
2018-10-07T01:24:18.406Z,99.90
2018-10-07T01:26:46.927Z,99.90
2018-10-07T01:29:15.507Z,99.90
2018-10-07T01:31:44.039Z,99.90
2018-10-07T01:34:12.514Z,99.90
2018-10-07T01:36:41.070Z,99.90
2018-10-07T01:39:10.870Z,99.90
2018-10-07T01:41:39.427Z,99.90
2018-10-07T01:44:08.066Z,99.90
2018-10-07T01:46:36.888Z,99.90
2018-10-07T01:49:05.540Z,99.90
2018-10-07T01:51:34.188Z,99.90
2018-10-07T01:54:02.835Z,99.90
2018-10-07T01:56:31.359Z,99.90
2018-10-07T01:58:59.995Z,99.90
2018-10-07T02:01:28.527Z,99.90
2018-10-07T02:03:57.066Z,99.90
2018-10-07T02:06:25.531Z,99.90
2018-10-07T02:08:54.233Z,99.90
2018-10-07T02:11:22.779Z,99.90
2018-10-07T02:13:51.367Z,99.90
2018-10-07T02:16:20.319Z,99.90
2018-10-07T02:18:49.207Z,99.90
2018-10-07T02:21:17.817Z,99.90
2018-10-07T02:23:46.363Z,99.90
2018-10-07T02:26:15.130Z,99.90
2018-10-07T02:28:43.805Z,99.90
2018-10-07T02:31:12.518Z,99.90
2018-10-07T02:33:41.179Z,99.90
2018-10-07T02:36:09.699Z,99.90
2018-10-07T02:38:38.282Z,99.90
2018-10-07T02:41:06.915Z,99.90
2018-10-07T02:43:35.614Z,99.90
2018-10-07T02:46:04.196Z,99.90
2018-10-07T02:48:32.875Z,99.90
2018-10-07T02:51:01.581Z,99.90
2018-10-07T02:53:30.104Z,99.90
2018-10-07T02:55:58.819Z,99.90
2018-10-07T02:58:28.289Z,99.90
2018-10-07T03:00:56.839Z,99.90
2018-10-07T03:03:25.358Z,99.90
2018-10-07T03:05:53.837Z,99.90
2018-10-07T03:08:22.390Z,99.90
2018-10-07T03:10:51.006Z,99.90
2018-10-07T03:13:19.531Z,99.90
2018-10-07T03:15:48.196Z,99.90
2018-10-07T03:18:16.834Z,99.90
2018-10-07T03:20:45.595Z,99.90
2018-10-07T03:23:14.387Z,99.90
2018-10-07T03:25:42.862Z,99.90
2018-10-07T03:28:11.407Z,99.90
2018-10-07T03:30:40.009Z,99.90
2018-10-07T03:33:08.683Z,99.90
2018-10-07T03:35:37.223Z,99.90
2018-10-07T03:38:05.815Z,99.90
2018-10-07T03:40:34.352Z,99.90
2018-10-07T03:43:02.865Z,99.90
2018-10-07T03:45:31.348Z,99.90
2018-10-07T03:47:59.827Z,99.90
2018-10-07T03:50:28.313Z,99.90
2018-10-07T03:52:56.784Z,99.90
2018-10-07T03:55:25.303Z,99.90
2018-10-07T03:57:53.808Z,99.90
2018-10-07T04:00:22.295Z,99.90
2018-10-07T04:02:50.922Z,99.90
2018-10-07T04:05:19.665Z,99.90
2018-10-07T04:07:48.282Z,99.90
2018-10-07T04:10:16.762Z,99.90
2018-10-07T04:12:45.315Z,99.90
2018-10-07T04:15:14.138Z,99.90
2018-10-07T04:17:42.719Z,99.90
2018-10-07T04:20:11.267Z,99.90
2018-10-07T04:22:39.812Z,99.90
2018-10-07T04:25:08.379Z,99.90
2018-10-07T04:27:37.148Z,99.90
2018-10-07T04:30:05.974Z,99.90
2018-10-07T04:32:34.507Z,99.90
2018-10-07T04:35:03.154Z,99.90
2018-10-07T04:37:31.655Z,99.90
2018-10-07T04:40:00.392Z,99.90
2018-10-07T04:42:28.898Z,99.90
2018-10-07T04:44:57.840Z,99.90
2018-10-07T04:47:26.424Z,99.90
2018-10-07T04:49:54.954Z,99.90
2018-10-07T04:52:23.589Z,99.90
2018-10-07T04:54:52.131Z,99.90
2018-10-07T04:57:20.766Z,99.90
2018-10-07T04:59:49.272Z,99.90
2018-10-07T05:02:18.195Z,99.90
2018-10-07T05:04:46.815Z,99.90
2018-10-07T05:07:15.362Z,99.90
2018-10-07T05:09:43.920Z,99.90
2018-10-07T05:12:12.924Z,99.90
2018-10-07T05:14:41.523Z,99.90
2018-10-07T05:17:10.476Z,99.90
2018-10-07T05:19:39.119Z,99.90
2018-10-07T05:22:07.658Z,99.90
2018-10-07T05:24:36.171Z,99.90
2018-10-07T05:27:04.709Z,99.90
2018-10-07T05:29:33.428Z,99.90
2018-10-07T05:32:02.010Z,99.90
2018-10-07T05:34:30.522Z,99.90
2018-10-07T05:36:59.115Z,99.90
2018-10-07T05:39:27.726Z,99.90
2018-10-07T05:41:56.243Z,99.90
2018-10-07T05:44:24.927Z,99.90
2018-10-07T05:46:53.348Z,99.90
2018-10-07T05:49:21.847Z,99.90
2018-10-07T05:51:50.396Z,99.90
2018-10-07T05:54:18.968Z,99.90
2018-10-07T05:56:47.512Z,99.90
2018-10-07T05:59:16.111Z,99.90
2018-10-07T06:01:45.242Z,99.90
2018-10-07T06:04:22.783Z,99.90
2018-10-07T06:06:51.572Z,99.90
2018-10-07T06:09:24.506Z,99.90
2018-10-07T06:11:53.695Z,99.90
2018-10-07T06:14:33.559Z,99.90
2018-10-07T06:17:02.488Z,99.90
2018-10-07T06:19:31.728Z,99.90
2018-10-07T06:22:01.265Z,99.90
2018-10-07T06:24:29.922Z,99.90
2018-10-07T06:26:58.583Z,99.90
2018-10-07T06:29:27.561Z,99.90
2018-10-07T06:31:56.194Z,99.90
2018-10-07T06:34:25.018Z,99.90
2018-10-07T06:36:54.264Z,99.90
2018-10-07T06:39:23.615Z,99.90
2018-10-07T06:41:52.606Z,99.90
2018-10-07T06:44:21.920Z,99.90
2018-10-07T06:46:50.508Z,99.90
2018-10-07T06:49:19.540Z,99.90
2018-10-07T06:51:48.326Z,99.90
2018-10-07T06:54:17.010Z,99.90
2018-10-07T06:56:46.545Z,99.90
2018-10-07T06:59:15.163Z,99.90
2018-10-07T07:01:43.885Z,99.90
2018-10-07T07:04:12.391Z,99.90
2018-10-07T07:06:41.124Z,99.90
2018-10-07T07:09:10.990Z,99.90
2018-10-07T07:11:39.628Z,99.90
2018-10-07T07:14:08.334Z,99.90
2018-10-07T07:16:37.050Z,99.90
2018-10-07T07:19:05.909Z,99.90
2018-10-07T07:21:34.759Z,99.90
2018-10-07T07:24:03.681Z,99.90
2018-10-07T07:26:32.418Z,99.90
2018-10-07T07:29:00.998Z,99.90
2018-10-07T07:31:29.556Z,99.90
2018-10-07T07:33:58.058Z,99.90
2018-10-07T07:36:26.816Z,99.90
2018-10-07T07:38:55.390Z,99.90
2018-10-07T07:41:24.191Z,99.90
2018-10-07T07:43:52.920Z,99.90
2018-10-07T07:46:21.484Z,99.90
2018-10-07T07:48:50.232Z,99.90
2018-10-07T07:51:18.990Z,99.90
2018-10-07T07:53:47.559Z,99.90
2018-10-07T07:56:16.063Z,99.90
2018-10-07T07:58:44.579Z,99.90
2018-10-07T08:01:13.357Z,99.90
2018-10-07T08:03:41.944Z,99.90
2018-10-07T08:06:10.826Z,99.90
2018-10-07T08:08:39.417Z,99.90
2018-10-07T08:11:08.272Z,99.90
2018-10-07T08:13:36.879Z,99.90
2018-10-07T08:16:05.464Z,99.90
2018-10-07T08:18:34.155Z,99.90
2018-10-07T08:21:03.006Z,99.90
2018-10-07T08:23:31.721Z,99.90
2018-10-07T08:26:00.796Z,99.90
2018-10-07T08:28:29.350Z,99.90
2018-10-07T08:30:57.880Z,99.90
2018-10-07T08:33:26.629Z,99.90
2018-10-07T08:35:55.240Z,99.90
2018-10-07T08:38:23.860Z,99.90
2018-10-07T08:40:52.466Z,99.90
2018-10-07T08:43:21.028Z,99.90
2018-10-07T08:45:49.531Z,99.90
2018-10-07T08:48:18.228Z,99.90
2018-10-07T08:50:46.815Z,99.90
2018-10-07T08:53:15.430Z,99.90
2018-10-07T08:55:44.040Z,99.90
2018-10-07T08:58:12.595Z,99.90
2018-10-07T09:00:41.072Z,99.90
2018-10-07T09:03:09.739Z,99.90
2018-10-07T09:05:38.510Z,99.90
2018-10-07T09:08:07.248Z,99.90
2018-10-07T09:10:35.769Z,99.90
2018-10-07T09:13:04.758Z,99.90
2018-10-07T09:15:33.273Z,99.90
2018-10-07T09:18:02.177Z,99.90
2018-10-07T09:20:30.984Z,99.90
2018-10-07T09:22:59.776Z,99.90
2018-10-07T09:25:28.306Z,99.90
2018-10-07T09:27:58.485Z,99.90
2018-10-07T09:30:27.232Z,99.90
2018-10-07T09:32:56.105Z,99.90
2018-10-07T09:35:24.572Z,99.90
2018-10-07T09:37:53.603Z,99.90
2018-10-07T09:40:22.413Z,99.90
2018-10-07T09:42:51.086Z,99.90
2018-10-07T09:45:19.712Z,99.90
2018-10-07T09:47:48.510Z,99.90
2018-10-07T09:50:17.042Z,99.90
2018-10-07T09:52:45.745Z,99.90
2018-10-07T09:55:14.617Z,99.90
2018-10-07T09:57:43.372Z,99.90
2018-10-07T10:00:11.921Z,99.90
2018-10-07T10:02:40.722Z,99.90
2018-10-07T10:05:09.560Z,99.90
2018-10-07T10:07:38.132Z,99.90
2018-10-07T10:10:06.822Z,99.90
2018-10-07T10:12:35.605Z,99.90
2018-10-07T10:15:04.154Z,99.90
2018-10-07T10:17:33.387Z,99.90
2018-10-07T10:20:04.419Z,99.90
2018-10-07T10:22:43.760Z,99.90
2018-10-07T10:26:22.588Z,99.90
2018-10-07T10:29:06.146Z,99.90
2018-10-07T10:31:48.159Z,99.90
2018-10-07T10:36:31.981Z,99.90
2018-10-07T10:39:44.064Z,99.90
2018-10-07T10:42:35.255Z,99.90
2018-10-07T10:45:04.146Z,99.90
2018-10-07T10:47:39.796Z,99.90
2018-10-07T10:50:17.091Z,99.90
2018-10-07T10:52:53.969Z,99.90
2018-10-07T10:55:30.181Z,99.90
2018-10-07T10:58:03.986Z,99.90
2018-10-07T11:00:50.604Z,99.90
2018-10-07T11:03:53.535Z,99.90
2018-10-07T11:06:30.207Z,99.90
2018-10-07T11:09:11.310Z,99.90
2018-10-07T11:12:00.338Z,99.90
2018-10-07T11:14:39.181Z,99.90
2018-10-07T11:17:31.163Z,99.90
2018-10-07T11:20:14.531Z,99.90
2018-10-07T11:24:54.239Z,99.90
2018-10-07T11:27:33.915Z,99.90
2018-10-07T11:30:16.331Z,99.90
2018-10-07T11:33:01.148Z,99.90
2018-10-07T11:35:38.055Z,99.90
2018-10-07T11:38:15.509Z,99.90
2018-10-07T11:44:05.074Z,99.90
2018-10-07T11:46:55.852Z,99.90
2018-10-07T11:49:37.628Z,99.90
2018-10-07T11:52:09.302Z,99.90
2018-10-07T11:55:00.391Z,99.40
2018-10-07T11:57:29.337Z,99.90
2018-10-07T11:59:58.703Z,99.90
2018-10-07T12:02:27.668Z,99.90
2018-10-07T12:04:56.579Z,99.90
2018-10-07T12:07:26.424Z,99.90
2018-10-07T12:09:55.122Z,99.50
2018-10-07T12:12:23.704Z,99.90
2018-10-07T12:14:52.310Z,99.20
2018-10-07T12:17:21.012Z,99.30
2018-10-07T12:19:49.584Z,99.30
2018-10-07T12:22:18.144Z,99.90
2018-10-07T12:24:46.659Z,99.80
2018-10-07T12:27:15.311Z,99.80
2018-10-07T12:29:43.876Z,99.90
2018-10-07T12:32:12.758Z,98.80
2018-10-07T12:34:41.734Z,99.90
2018-10-07T12:37:10.258Z,99.40
2018-10-07T12:39:38.891Z,99.60
2018-10-07T12:42:07.484Z,99.90
2018-10-07T12:44:36.094Z,99.80
2018-10-07T12:47:04.656Z,99.80
2018-10-07T12:49:33.224Z,99.90
2018-10-07T12:52:01.752Z,99.70
2018-10-07T12:54:30.500Z,99.30
2018-10-07T12:56:59.343Z,99.70
2018-10-07T12:59:28.264Z,99.00
2018-10-07T13:01:56.844Z,99.30
2018-10-07T13:04:25.506Z,99.50
2018-10-07T13:06:54.010Z,99.10
2018-10-07T13:09:22.736Z,98.80
2018-10-07T13:11:51.323Z,98.70
2018-10-07T13:14:20.187Z,98.80
2018-10-07T13:16:49.064Z,99.60
2018-10-07T13:19:17.731Z,98.70
2018-10-07T13:21:46.317Z,98.20
2018-10-07T13:24:14.940Z,99.30
2018-10-07T13:26:43.630Z,99.50
2018-10-07T13:29:12.315Z,99.10
2018-10-07T13:31:40.957Z,99.80
2018-10-07T13:34:09.601Z,98.90
2018-10-07T13:36:38.100Z,98.00
2018-10-07T13:39:10.632Z,99.00
2018-10-07T13:41:39.470Z,98.60
2018-10-07T13:44:08.169Z,99.40
2018-10-07T13:46:36.995Z,99.80
2018-10-07T13:49:05.683Z,99.80
2018-10-07T13:51:34.442Z,99.60
2018-10-07T13:54:03.164Z,99.90
2018-10-07T13:56:31.704Z,99.80
2018-10-07T13:59:00.249Z,99.60
2018-10-07T14:01:28.904Z,99.80
2018-10-07T14:03:57.743Z,99.60
2018-10-07T14:06:26.439Z,99.80
2018-10-07T14:08:54.947Z,99.80
2018-10-07T14:11:23.601Z,99.80
2018-10-07T14:13:52.184Z,99.90
2018-10-07T14:16:20.855Z,99.90
2018-10-07T14:18:49.479Z,99.40
2018-10-07T14:21:18.277Z,99.30
2018-10-07T14:23:47.326Z,99.30
2018-10-07T14:26:15.838Z,98.70
2018-10-07T14:28:44.388Z,99.70
2018-10-07T14:31:12.976Z,99.90
2018-10-07T14:33:41.516Z,99.70
2018-10-07T14:36:10.196Z,99.60
2018-10-07T14:38:38.734Z,99.30
2018-10-07T14:41:07.393Z,99.70
2018-10-07T14:43:36.098Z,99.50
2018-10-07T14:46:04.699Z,98.90
2018-10-07T14:48:33.752Z,99.70
2018-10-07T14:51:02.355Z,99.90
2018-10-07T14:53:30.935Z,99.70
2018-10-07T14:55:59.625Z,99.90
2018-10-07T14:58:28.211Z,99.90
2018-10-07T15:00:57.138Z,99.60
2018-10-07T15:03:25.636Z,99.60
2018-10-07T15:05:54.201Z,99.50
2018-10-07T15:08:22.755Z,99.00
2018-10-07T15:10:51.403Z,99.70
2018-10-07T15:13:20.047Z,98.80
2018-10-07T15:15:48.594Z,99.20
2018-10-07T15:18:17.417Z,98.90
2018-10-07T15:20:46.013Z,99.40
2018-10-07T15:23:14.901Z,99.00
2018-10-07T15:25:43.709Z,99.50
2018-10-07T15:28:12.863Z,99.30
2018-10-07T15:30:41.575Z,99.10
2018-10-07T15:33:10.083Z,99.20
2018-10-07T15:35:38.683Z,99.10
2018-10-07T15:38:07.299Z,98.80
2018-10-07T15:40:35.865Z,99.00
2018-10-07T15:43:04.536Z,99.50
2018-10-07T15:45:33.088Z,98.90
2018-10-07T15:48:01.678Z,99.50
2018-10-07T15:50:30.244Z,99.10
2018-10-07T15:52:59.005Z,99.60
2018-10-07T15:55:27.733Z,98.90
2018-10-07T15:57:56.338Z,99.10
2018-10-07T16:00:25.485Z,99.60
2018-10-07T16:02:54.060Z,99.10
2018-10-07T16:05:22.711Z,99.70
2018-10-07T16:07:51.525Z,99.40
2018-10-07T16:10:20.228Z,99.40
2018-10-07T16:12:48.719Z,99.00
2018-10-07T16:15:17.429Z,99.00
2018-10-07T16:17:45.995Z,98.90
2018-10-07T16:20:14.757Z,99.20
2018-10-07T16:22:43.508Z,99.20
2018-10-07T16:25:12.131Z,98.50
2018-10-07T16:27:40.764Z,99.10
2018-10-07T16:30:09.432Z,99.50
2018-10-07T16:32:38.184Z,99.80
2018-10-07T16:35:06.976Z,99.90
2018-10-07T16:37:36.167Z,99.50
2018-10-07T16:40:04.968Z,99.50
2018-10-07T16:42:33.795Z,99.50
2018-10-07T16:45:02.831Z,99.60
2018-10-07T16:47:31.358Z,99.60
2018-10-07T16:50:00.100Z,99.60
2018-10-07T16:52:28.682Z,99.90
2018-10-07T16:54:57.430Z,99.90
2018-10-07T16:57:26.239Z,99.90
2018-10-07T16:59:55.175Z,99.90
2018-10-07T17:02:23.966Z,99.90
2018-10-07T17:04:52.827Z,99.90
2018-10-07T17:07:21.407Z,99.90
2018-10-07T17:09:49.967Z,99.90
2018-10-07T17:12:18.779Z,99.90
2018-10-07T17:14:47.553Z,99.90
2018-10-07T17:17:16.348Z,99.90
2018-10-07T17:19:45.024Z,99.90
2018-10-07T17:22:13.605Z,99.90
2018-10-07T17:24:42.305Z,99.90
2018-10-07T17:27:11.376Z,99.90
2018-10-07T17:29:39.933Z,99.90
2018-10-07T17:32:08.806Z,99.90
2018-10-07T17:34:37.820Z,99.90
2018-10-07T17:37:06.735Z,99.90
2018-10-07T17:39:35.667Z,99.90
2018-10-07T17:42:04.335Z,99.90
2018-10-07T17:44:32.987Z,99.90
2018-10-07T17:47:01.817Z,99.90
2018-10-07T17:49:30.419Z,99.90
2018-10-07T17:51:59.070Z,99.90
2018-10-07T17:54:27.948Z,99.90
2018-10-07T17:56:56.516Z,99.90
2018-10-07T17:59:25.343Z,99.90
2018-10-07T18:01:54.101Z,99.90
2018-10-07T18:04:22.910Z,99.90
2018-10-07T18:06:51.517Z,99.90
2018-10-07T18:09:20.299Z,99.90
2018-10-07T18:11:49.138Z,99.90
2018-10-07T18:14:17.937Z,99.90
2018-10-07T18:16:46.646Z,99.90
2018-10-07T18:19:15.426Z,99.90
2018-10-07T18:21:44.379Z,99.90
2018-10-07T18:24:13.213Z,99.90
2018-10-07T18:26:41.805Z,99.90
2018-10-07T18:29:10.879Z,99.90
2018-10-07T18:31:39.684Z,99.90
2018-10-07T18:34:08.675Z,99.90
2018-10-07T18:36:37.348Z,99.90
2018-10-07T18:39:08.392Z,99.90
2018-10-07T18:41:38.218Z,99.90
2018-10-07T18:44:06.936Z,99.90
2018-10-07T18:46:35.672Z,99.90
2018-10-07T18:49:04.883Z,99.90
2018-10-07T18:51:33.657Z,99.90
2018-10-07T18:54:02.279Z,99.90
2018-10-07T18:56:31.198Z,99.90
2018-10-07T18:58:59.861Z,99.90
2018-10-07T19:01:28.685Z,99.90
2018-10-07T19:03:57.550Z,99.90
2018-10-07T19:06:26.270Z,99.90
2018-10-07T19:08:54.795Z,99.90
2018-10-07T19:11:23.758Z,99.90
2018-10-07T19:13:52.440Z,99.90
2018-10-07T19:16:21.204Z,99.90
2018-10-07T19:18:49.916Z,99.90
2018-10-07T19:21:18.750Z,99.90
2018-10-07T19:23:47.390Z,99.90
2018-10-07T19:26:16.088Z,99.90
2018-10-07T19:28:44.751Z,99.90
2018-10-07T19:31:13.395Z,99.90
2018-10-07T19:33:41.960Z,99.90
2018-10-07T19:36:10.815Z,99.90
2018-10-07T19:38:39.421Z,99.90
2018-10-07T19:41:08.152Z,99.90
2018-10-07T19:43:36.864Z,99.90
2018-10-07T19:46:05.751Z,99.90
2018-10-07T19:48:34.513Z,99.90
2018-10-07T19:51:03.341Z,99.90
2018-10-07T19:53:31.932Z,99.90
2018-10-07T19:56:00.861Z,99.90
2018-10-07T19:58:29.593Z,99.90
2018-10-07T20:00:58.194Z,99.90
2018-10-07T20:03:27.008Z,99.90
2018-10-07T20:05:55.587Z,99.90
2018-10-07T20:08:24.511Z,99.90
2018-10-07T20:10:53.620Z,99.90
2018-10-07T20:13:22.302Z,99.90
2018-10-07T20:15:50.910Z,99.90
2018-10-07T20:18:19.917Z,99.90
2018-10-07T20:20:49.084Z,99.90
2018-10-07T20:23:18.183Z,99.90
2018-10-07T20:25:47.178Z,99.90
2018-10-07T20:28:15.875Z,99.90
2018-10-07T20:30:44.924Z,99.90
2018-10-07T20:33:14.045Z,99.90
2018-10-07T20:35:43.040Z,99.90
2018-10-07T20:38:12.120Z,99.90
2018-10-07T20:40:41.032Z,99.90
2018-10-07T20:43:09.335Z,99.90
2018-10-07T20:45:37.884Z,99.90
2018-10-07T20:48:06.490Z,99.90
2018-10-07T20:50:35.236Z,99.90
2018-10-07T20:53:04.039Z,99.90
2018-10-07T20:55:32.724Z,99.90
2018-10-07T20:58:01.314Z,99.90
2018-10-07T21:00:29.844Z,99.90
2018-10-07T21:02:58.628Z,99.90
2018-10-07T21:05:27.367Z,99.90
2018-10-07T21:07:55.884Z,99.90
2018-10-07T21:10:24.580Z,99.90
2018-10-07T21:12:53.115Z,99.90
2018-10-07T21:15:21.666Z,99.90
2018-10-07T21:17:50.362Z,99.90
2018-10-07T21:20:18.899Z,99.90
2018-10-07T21:22:47.440Z,99.90
2018-10-07T21:25:15.958Z,99.90
2018-10-07T21:27:44.631Z,99.90
2018-10-07T21:30:13.526Z,99.90
2018-10-07T21:32:42.107Z,99.90
2018-10-07T21:35:10.860Z,99.90
2018-10-07T21:37:39.391Z,99.90
2018-10-07T21:40:07.900Z,99.90
2018-10-07T21:42:36.428Z,99.90
2018-10-07T21:45:05.449Z,99.90
2018-10-07T21:47:34.008Z,99.90
2018-10-07T21:50:02.593Z,99.90
2018-10-07T21:52:31.356Z,99.90
2018-10-07T21:54:59.816Z,99.90
2018-10-07T21:57:28.384Z,99.90
2018-10-07T21:59:56.998Z,99.90
2018-10-07T22:02:25.583Z,99.90
2018-10-07T22:04:54.128Z,99.90
2018-10-07T22:07:22.739Z,99.90
2018-10-07T22:09:51.571Z,99.90
2018-10-07T22:12:20.267Z,99.90
2018-10-07T22:14:48.786Z,99.90
2018-10-07T22:17:17.386Z,99.90
2018-10-07T22:19:46.182Z,99.90
2018-10-07T22:22:14.903Z,99.90
2018-10-07T22:24:43.452Z,99.90
2018-10-07T22:27:12.168Z,99.90
2018-10-07T22:29:40.670Z,99.90
2018-10-07T22:32:09.315Z,99.90
2018-10-07T22:34:37.835Z,99.90
2018-10-07T22:37:06.518Z,99.90
2018-10-07T22:39:35.042Z,99.90
2018-10-07T22:42:03.554Z,99.90
2018-10-07T22:44:32.342Z,99.90
2018-10-07T22:47:00.825Z,99.90
2018-10-07T22:49:29.843Z,99.90
2018-10-07T22:51:58.369Z,99.90
2018-10-07T22:54:26.924Z,99.90
2018-10-07T22:56:55.831Z,99.90
2018-10-07T22:59:24.417Z,99.90
2018-10-07T23:01:52.940Z,99.90
2018-10-07T23:04:21.546Z,99.90
2018-10-07T23:06:50.160Z,99.90
2018-10-07T23:09:18.887Z,99.90
2018-10-07T23:11:47.376Z,99.90
2018-10-07T23:14:15.867Z,99.90
2018-10-07T23:16:44.393Z,99.90
2018-10-07T23:19:12.975Z,99.90
2018-10-07T23:21:41.456Z,99.90
2018-10-07T23:24:10.044Z,99.90
2018-10-07T23:26:38.631Z,99.90
2018-10-07T23:29:07.274Z,99.90
2018-10-07T23:31:35.887Z,99.90
2018-10-07T23:34:04.439Z,99.90
2018-10-07T23:36:33.053Z,99.90
2018-10-07T23:39:01.536Z,99.90
2018-10-07T23:41:30.543Z,99.90
2018-10-07T23:43:59.107Z,99.90
2018-10-07T23:46:27.612Z,99.90
2018-10-07T23:48:56.250Z,99.90
2018-10-07T23:51:24.735Z,99.90
2018-10-07T23:53:53.413Z,99.90
2018-10-07T23:56:22.136Z,99.90
2018-10-07T23:58:50.733Z,99.90
